createdAt,value
2023-05-11T00:04:33.241Z,68.34
2023-05-11T00:09:54.436Z,67.98
2023-05-11T00:14:46.851Z,68.38
2023-05-11T00:19:46.778Z,68.52
2023-05-11T00:24:46.703Z,68.59
2023-05-11T00:29:46.652Z,68.56
2023-05-11T00:34:46.599Z,68.57
2023-05-11T00:39:46.478Z,68.59
2023-05-11T00:44:46.468Z,68.60
2023-05-11T00:49:46.393Z,68.63
2023-05-11T00:54:46.318Z,68.66
2023-05-11T00:59:46.218Z,68.66
2023-05-11T01:04:46.178Z,68.66
2023-05-11T01:09:46.161Z,68.70
2023-05-11T01:14:46.104Z,68.77
2023-05-11T01:19:45.979Z,68.84
2023-05-11T01:24:45.932Z,68.88
2023-05-11T01:29:45.849Z,68.93
2023-05-11T01:34:45.783Z,68.97
2023-05-11T01:39:45.721Z,69.04
2023-05-11T01:44:45.666Z,69.07
2023-05-11T01:49:45.570Z,69.11
2023-05-11T01:54:45.537Z,69.11
2023-05-11T01:59:45.477Z,69.15
2023-05-11T02:04:45.461Z,69.19
2023-05-11T02:09:45.323Z,69.25
2023-05-11T02:14:45.305Z,69.29
2023-05-11T02:19:45.190Z,69.35
2023-05-11T02:24:45.182Z,69.40
2023-05-11T02:29:45.101Z,69.46
2023-05-11T02:34:45.100Z,69.54
2023-05-11T02:39:44.978Z,69.60
2023-05-11T02:44:44.878Z,69.65
2023-05-11T02:49:44.810Z,69.70
2023-05-11T02:54:44.831Z,69.73
2023-05-11T02:59:44.648Z,69.74
2023-05-11T03:04:45.357Z,69.71
2023-05-11T03:09:44.558Z,69.74
2023-05-11T03:14:44.442Z,69.77
2023-05-11T03:19:44.393Z,69.81
2023-05-11T03:24:44.360Z,69.86
2023-05-11T03:29:44.317Z,69.88
2023-05-11T03:34:44.239Z,69.86
2023-05-11T03:39:44.145Z,69.86
2023-05-11T03:44:44.098Z,69.83
2023-05-11T03:49:44.065Z,69.82
2023-05-11T03:54:43.974Z,69.89
2023-05-11T03:59:43.890Z,69.88
2023-05-11T04:04:43.892Z,69.88
2023-05-11T04:09:43.760Z,69.86
2023-05-11T04:14:43.653Z,69.86
2023-05-11T04:19:58.190Z,69.45
2023-05-11T04:24:50.556Z,69.87
2023-05-11T04:29:50.546Z,69.95
2023-05-11T04:34:50.438Z,69.92
2023-05-11T04:39:50.454Z,69.88
2023-05-11T04:44:50.378Z,69.83
2023-05-11T04:49:50.316Z,69.83
2023-05-11T04:54:50.289Z,69.81
2023-05-11T04:59:50.195Z,69.64
2023-05-11T05:04:50.035Z,69.62
2023-05-11T05:09:50.001Z,69.68
2023-05-11T05:14:49.907Z,69.55
2023-05-11T05:19:49.881Z,69.42
2023-05-11T05:24:49.764Z,69.33
2023-05-11T05:29:49.756Z,69.02
2023-05-11T05:34:49.681Z,68.76
2023-05-11T05:39:49.593Z,68.54
2023-05-11T05:44:49.547Z,68.87
2023-05-11T05:49:49.469Z,68.96
2023-05-11T05:54:49.385Z,68.79
2023-05-11T05:59:49.449Z,68.90
2023-05-11T06:04:49.383Z,68.89
2023-05-11T06:09:49.271Z,68.69
2023-05-11T06:14:49.208Z,68.34
2023-05-11T06:19:49.110Z,67.67
2023-05-11T06:24:49.044Z,67.03
2023-05-11T06:29:49.064Z,66.83
2023-05-11T06:34:48.953Z,66.18
2023-05-11T06:39:48.868Z,64.93
2023-05-11T06:44:48.790Z,63.17
2023-05-11T06:49:48.722Z,60.82
2023-05-11T06:54:48.602Z,57.23
2023-05-11T06:59:48.589Z,56.65
2023-05-11T07:04:48.493Z,58.02
2023-05-11T07:09:48.462Z,55.62
2023-05-11T07:14:48.365Z,54.92
2023-05-11T07:19:48.247Z,55.29
2023-05-11T07:24:48.204Z,57.16
2023-05-11T07:29:48.153Z,59.08
2023-05-11T07:34:48.025Z,60.03
2023-05-11T07:39:48.046Z,59.35
2023-05-11T07:44:47.938Z,59.14
2023-05-11T07:49:47.882Z,59.04
2023-05-11T07:54:47.825Z,58.77
2023-05-11T07:59:47.792Z,58.29
2023-05-11T08:04:47.814Z,58.15
2023-05-11T08:09:47.627Z,57.78
2023-05-11T08:14:47.576Z,58.45
2023-05-11T08:19:47.509Z,59.44
2023-05-11T08:24:47.480Z,58.28
2023-05-11T08:29:47.322Z,58.87
2023-05-11T08:34:48.099Z,58.06
2023-05-11T08:39:48.022Z,57.30
2023-05-11T08:44:47.162Z,57.38
2023-05-11T08:49:47.048Z,57.91
2023-05-11T08:54:47.062Z,58.77
2023-05-11T08:59:47.026Z,59.05
2023-05-11T09:04:48.841Z,59.03
2023-05-11T09:09:46.796Z,58.49
2023-05-11T09:14:46.762Z,58.16
2023-05-11T09:19:46.663Z,58.26
2023-05-11T09:24:46.654Z,58.48
2023-05-11T09:29:51.817Z,58.29
2023-05-11T09:34:47.572Z,57.89
2023-05-11T09:40:14.094Z,57.86
2023-05-11T09:44:47.374Z,57.35
2023-05-11T09:49:46.302Z,57.35
2023-05-11T09:54:46.273Z,56.69
2023-05-11T09:59:46.168Z,55.10
2023-05-11T10:04:46.098Z,53.17
2023-05-11T10:09:45.977Z,51.10
2023-05-11T10:14:45.971Z,49.92
2023-05-11T10:19:45.939Z,49.67
2023-05-11T10:24:45.954Z,50.73
2023-05-11T10:29:45.754Z,51.35
2023-05-11T10:34:45.778Z,50.27
2023-05-11T10:39:47.210Z,51.03
2023-05-11T10:44:45.544Z,51.73
2023-05-11T10:49:45.478Z,52.53
2023-05-11T10:54:45.465Z,52.04
2023-05-11T10:59:45.319Z,51.83
2023-05-11T11:04:45.301Z,50.92
2023-05-11T11:09:45.221Z,49.25
2023-05-11T11:14:45.226Z,47.80
2023-05-11T11:19:45.227Z,46.16
2023-05-11T11:24:45.272Z,46.42
2023-05-11T11:29:44.990Z,45.20
2023-05-11T11:34:45.029Z,43.64
2023-05-11T11:39:44.921Z,45.41
2023-05-11T11:44:44.825Z,46.98
2023-05-11T11:49:44.762Z,46.69
2023-05-11T11:54:44.641Z,45.62
2023-05-11T11:59:44.625Z,46.10
2023-05-11T12:04:44.666Z,46.34
2023-05-11T12:09:44.488Z,46.66
2023-05-11T12:14:44.382Z,47.29
2023-05-11T12:19:44.264Z,47.51
2023-05-11T12:24:44.290Z,47.68
2023-05-11T12:29:44.192Z,47.46
2023-05-11T12:34:44.769Z,47.14
2023-05-11T12:39:44.060Z,47.11
2023-05-11T12:44:43.981Z,47.06
2023-05-11T12:49:44.089Z,47.24
2023-05-11T12:54:43.883Z,47.38
2023-05-11T12:59:43.819Z,47.17
2023-05-11T13:04:43.825Z,47.32
2023-05-11T13:09:43.672Z,47.39
2023-05-11T13:14:43.627Z,47.55
2023-05-11T13:19:43.547Z,47.48
2023-05-11T13:24:43.437Z,47.13
2023-05-11T13:29:43.432Z,46.79
2023-05-11T13:34:43.385Z,47.25
2023-05-11T13:39:43.266Z,47.66
2023-05-11T13:44:44.705Z,47.71
2023-05-11T13:49:43.553Z,47.89
2023-05-11T13:54:43.160Z,47.94
2023-05-11T13:59:44.494Z,48.05
2023-05-11T14:04:43.021Z,47.93
2023-05-11T14:09:43.022Z,47.56
2023-05-11T14:14:42.770Z,47.51
2023-05-11T14:19:42.794Z,47.79
2023-05-11T14:24:42.708Z,48.33
2023-05-11T14:29:44.065Z,48.76
2023-05-11T14:34:42.574Z,48.78
2023-05-11T14:39:42.568Z,48.92
2023-05-11T14:44:42.467Z,49.22
2023-05-11T14:49:42.391Z,49.65
2023-05-11T14:54:42.289Z,49.94
2023-05-11T14:59:55.447Z,50.19
2023-05-11T15:04:43.171Z,50.44
2023-05-11T15:09:42.086Z,50.64
2023-05-11T15:14:42.046Z,50.99
2023-05-11T15:19:41.948Z,51.15
2023-05-11T15:24:41.845Z,51.23
2023-05-11T15:29:42.071Z,51.50
2023-05-11T15:34:54.861Z,51.89
2023-05-11T15:39:42.689Z,52.24
2023-05-11T15:44:41.686Z,52.68
2023-05-11T15:49:41.566Z,53.06
2023-05-11T15:54:41.443Z,53.44
2023-05-11T15:59:41.412Z,53.76
2023-05-11T16:04:41.347Z,54.09
2023-05-11T16:09:41.296Z,54.49
2023-05-11T16:14:41.202Z,54.63
2023-05-11T16:19:41.107Z,54.78
2023-05-11T16:24:41.022Z,55.09
2023-05-11T16:29:40.979Z,55.33
2023-05-11T16:34:40.884Z,55.70
2023-05-11T16:39:41.827Z,56.05
2023-05-11T16:44:40.812Z,56.41
2023-05-11T16:49:40.710Z,56.75
2023-05-11T16:54:40.680Z,57.04
2023-05-11T16:59:40.626Z,57.39
2023-05-11T17:04:40.545Z,57.70
2023-05-11T17:09:40.472Z,58.00
2023-05-11T17:14:40.372Z,58.38
2023-05-11T17:19:40.304Z,58.73
2023-05-11T17:24:40.342Z,58.89
2023-05-11T17:29:40.208Z,59.06
2023-05-11T17:34:40.162Z,59.20
2023-05-11T17:39:40.081Z,59.45
2023-05-11T17:44:39.969Z,59.82
2023-05-11T17:49:39.931Z,60.28
2023-05-11T17:54:45.228Z,60.57
2023-05-11T17:59:39.863Z,60.87
2023-05-11T18:04:39.705Z,61.09
2023-05-11T18:09:39.859Z,61.35
2023-05-11T18:14:39.674Z,61.56
2023-05-11T18:19:39.570Z,61.79
2023-05-11T18:24:39.440Z,62.00
2023-05-11T18:29:39.651Z,62.29
2023-05-11T18:34:39.371Z,62.48
2023-05-11T18:39:39.294Z,62.63
2023-05-11T18:44:39.219Z,62.79
2023-05-11T18:49:39.162Z,62.89
2023-05-11T18:54:39.089Z,63.06
2023-05-11T18:59:39.248Z,63.20
2023-05-11T19:04:39.011Z,63.34
2023-05-11T19:09:38.866Z,63.46
2023-05-11T19:14:38.858Z,63.55
2023-05-11T19:19:38.731Z,63.69
2023-05-11T19:24:38.644Z,63.78
2023-05-11T19:29:38.583Z,63.88
2023-05-11T19:34:38.507Z,63.97
2023-05-11T19:39:38.482Z,64.04
2023-05-11T19:44:38.389Z,64.12
2023-05-11T19:49:38.344Z,64.19
2023-05-11T19:54:38.264Z,64.29
2023-05-11T19:59:38.408Z,64.40
2023-05-11T20:04:38.111Z,64.49
2023-05-11T20:09:38.064Z,64.53
2023-05-11T20:14:37.952Z,64.57
2023-05-11T20:19:37.958Z,64.70
2023-05-11T20:24:37.885Z,64.79
2023-05-11T20:29:37.809Z,64.86
2023-05-11T20:34:37.836Z,64.92
2023-05-11T20:39:37.705Z,64.95
2023-05-11T20:44:37.589Z,65.06
2023-05-11T20:49:39.575Z,65.12
2023-05-11T20:54:37.467Z,65.23
2023-05-11T21:04:37.304Z,65.38
2023-05-11T21:09:37.437Z,65.44
2023-05-11T21:14:37.222Z,65.56
2023-05-11T21:19:37.117Z,65.62
2023-05-11T21:24:37.037Z,65.63
2023-05-11T21:29:36.982Z,65.71
2023-05-11T21:34:36.929Z,65.79
2023-05-11T21:39:36.910Z,65.89
2023-05-11T21:44:36.761Z,65.94
2023-05-11T21:49:36.841Z,66.03
2023-05-11T21:54:36.693Z,66.15
2023-05-11T21:59:36.648Z,66.24
2023-05-11T22:04:36.542Z,66.32
2023-05-11T22:09:36.473Z,66.40
2023-05-11T22:14:36.424Z,66.44
2023-05-11T22:19:36.342Z,66.48
2023-05-11T22:24:36.249Z,66.59
2023-05-11T22:29:36.242Z,66.64
2023-05-11T22:34:36.091Z,66.70
2023-05-11T22:39:36.084Z,66.78
2023-05-11T22:44:35.950Z,66.85
2023-05-11T22:49:36.020Z,66.91
2023-05-11T22:54:35.861Z,66.94
2023-05-11T22:59:35.769Z,66.96
2023-05-11T23:04:35.730Z,67.03
2023-05-11T23:09:35.682Z,67.06
2023-05-11T23:14:35.559Z,67.12
2023-05-11T23:19:35.536Z,67.20
2023-05-11T23:24:35.447Z,67.23
2023-05-11T23:29:35.428Z,67.28
2023-05-11T23:34:35.342Z,67.35
2023-05-11T23:39:35.246Z,67.40
2023-05-11T23:44:35.164Z,67.43
2023-05-11T23:49:35.138Z,67.45
2023-05-11T23:54:35.066Z,67.56
2023-05-11T23:59:34.974Z,67.61
